Time;durP1;ratioP1;P1;durP2;ratioP2;P2;SDS_P1;SDS_P2;PMS_P1;PMS_P2;Temp;Humidity;BMP_temperature;BMP_pressure;BME280_temperature;BME280_humidity;BME280_pressure;Samples;Min_cycle;Max_cycle;Signal;HPM_P1;HPM_P2
2023/07/07 00:02:17;;;;;;;8.43;7.55;;;;;;;-144.30;63.07;84036.94;5049097;28;20283;-50
2023/07/07 00:04:44;;;;;;;9.02;8.15;;;;;;;-144.30;62.90;84082.66;5049873;28;20203;-49
2023/07/07 00:07:11;;;;;;;8.55;7.70;;;;;;;-144.30;62.88;84078.69;5039053;28;20633;-49
2023/07/07 00:09:38;;;;;;;8.20;7.55;;;;;;;-144.30;62.74;84094.56;5029988;28;20193;-49
2023/07/07 00:12:07;;;;;;;9.52;8.80;;;;;;;-144.30;62.39;84088.63;5029789;28;20204;-50
2023/07/07 00:14:34;;;;;;;11.20;9.35;;;;;;;-144.30;62.47;84076.69;5030005;28;20589;-49
2023/07/07 00:17:02;;;;;;;8.70;7.95;;;;;;;-144.30;62.37;84094.56;5045365;28;20220;-49
2023/07/07 00:19:32;;;;;;;10.77;8.85;;;;;;;-144.30;62.25;84058.81;5049414;28;20240;-49
2023/07/07 00:22:00;;;;;;;9.38;8.52;;;;;;;-144.30;62.10;84048.88;5049864;28;20200;-48
2023/07/07 00:24:27;;;;;;;10.13;8.18;;;;;;;-144.30;61.88;84090.59;5046318;28;20198;-49
2023/07/07 00:26:54;;;;;;;9.52;8.82;;;;;;;-144.30;61.65;84064.78;5030804;28;20208;-48
2023/07/07 00:29:22;;;;;;;8.85;8.18;;;;;;;-144.30;61.42;84046.88;5029427;28;20208;-48
2023/07/07 00:31:49;;;;;;;8.90;8.20;;;;;;;-144.30;61.24;84128.34;5029392;28;20202;-48
2023/07/07 00:34:17;;;;;;;11.38;7.60;;;;;;;-144.30;61.21;84046.88;5033328;28;21287;-49
2023/07/07 00:36:44;;;;;;;13.57;8.18;;;;;;;-144.30;61.16;84100.53;5049318;28;20224;-47
2023/07/07 00:39:11;;;;;;;10.35;7.68;;;;;;;-144.30;61.16;84070.72;5049391;28;20210;-47
2023/07/07 00:41:39;;;;;;;9.50;8.13;;;;;;;-144.30;61.00;84104.50;5049391;28;20207;-49
2023/07/07 00:44:10;;;;;;;10.05;7.35;;;;;;;-144.30;61.17;84108.50;5045005;28;20201;-48
2023/07/07 00:46:39;;;;;;;8.25;7.43;;;;;;;-144.30;61.31;84076.69;5029112;28;20201;-49
2023/07/07 00:49:09;;;;;;;8.95;7.10;;;;;;;-144.30;61.42;84108.50;5029452;28;20219;-50
2023/07/07 00:51:41;;;;;;;7.80;7.18;;;;;;;-144.30;61.47;84126.38;5029169;28;20196;-50
2023/07/07 00:54:15;;;;;;;8.02;7.32;;;;;;;-144.30;61.50;84076.69;5036670;28;20591;-50
2023/07/07 00:56:45;;;;;;;7.30;6.57;;;;;;;-144.30;61.76;84170.09;5048931;28;20278;-50
2023/07/07 00:59:18;;;;;;;8.05;7.35;;;;;;;-144.30;61.79;84168.09;5049218;28;20565;-49
2023/07/07 01:01:47;;;;;;;7.90;7.18;;;;;;;-144.30;61.35;84168.09;5048944;28;20197;-50
2023/07/07 01:04:18;;;;;;;8.32;7.53;;;;;;;-144.30;61.68;84144.25;5036081;28;20193;-48
2023/07/07 01:06:50;;;;;;;7.55;6.97;;;;;;;-144.30;61.35;84176.06;5029054;28;20197;-48
2023/07/07 01:09:17;;;;;;;10.32;7.93;;;;;;;-144.30;61.33;84134.31;5028752;28;20607;-48
2023/07/07 01:11:47;;;;;;;8.20;7.57;;;;;;;-144.30;61.25;84140.28;5029261;28;20240;-48
2023/07/07 01:14:17;;;;;;;8.10;7.45;;;;;;;-144.30;60.97;84104.50;5042166;28;20633;-49
2023/07/07 01:16:55;;;;;;;8.10;7.60;;;;;;;-144.30;61.04;84128.34;5048902;28;20708;-48
2023/07/07 01:19:58;;;;;;;7.68;7.07;;;;;;;-144.30;60.99;84140.28;5048510;28;20228;-48
2023/07/07 01:22:57;;;;;;;8.30;7.70;;;;;;;-144.30;60.81;84164.13;5045723;28;20208;-50
2023/07/07 01:25:36;;;;;;;8.63;8.02;;;;;;;-144.30;60.53;84148.22;5028667;28;20723;-49
2023/07/07 01:28:22;;;;;;;9.30;8.52;;;;;;;-144.30;60.36;84116.44;5029204;28;20196;-50
2023/07/07 01:30:53;;;;;;;8.45;7.65;;;;;;;-144.30;60.33;84102.53;5028845;28;20669;-49
2023/07/07 01:33:24;;;;;;;9.07;8.18;;;;;;;-144.30;60.03;84152.22;5036648;28;20203;-49
2023/07/07 01:35:52;;;;;;;9.38;7.57;;;;;;;-144.30;60.06;84164.13;5048543;28;20220;-47
2023/07/07 01:38:33;;;;;;;8.90;8.20;;;;;;;-144.30;60.10;84150.22;5048900;28;20210;-48
2023/07/07 01:41:08;;;;;;;8.73;8.02;;;;;;;-144.30;60.27;84112.47;5048844;28;20200;-48
2023/07/07 01:43:43;;;;;;;7.57;7.05;;;;;;;-144.30;60.11;84128.34;5048729;28;20672;-49
2023/07/07 01:46:20;;;;;;;8.30;7.57;;;;;;;-144.30;60.53;84128.34;5048309;28;20196;-48
2023/07/07 01:48:53;;;;;;;8.52;7.72;;;;;;;-144.30;60.65;84162.16;5048484;28;20207;-50
2023/07/07 01:51:23;;;;;;;8.90;8.20;;;;;;;-144.30;60.78;84186.00;5048221;28;20222;-50
2023/07/07 01:53:53;;;;;;;8.38;7.65;;;;;;;-144.30;60.94;84156.19;5048722;28;20204;-48
2023/07/07 01:56:25;;;;;;;8.55;7.78;;;;;;;-144.30;61.06;84142.28;5048189;28;20569;-48
2023/07/07 01:58:52;;;;;;;7.95;7.35;;;;;;;-144.30;60.90;84126.38;5048378;28;20201;-48
2023/07/07 02:01:21;;;;;;;8.57;7.70;;;;;;;-144.30;61.12;84124.38;5048689;28;20193;-49
2023/07/07 02:03:48;;;;;;;8.82;8.02;;;;;;;-144.30;61.57;84184.00;5048445;28;20205;-47
2023/07/07 02:06:15;;;;;;;9.43;7.70;;;;;;;-144.30;61.83;84225.75;5048584;28;20227;-49
2023/07/07 02:08:44;;;;;;;8.75;7.95;;;;;;;-144.30;62.21;84223.75;5048427;28;20199;-49
2023/07/07 02:11:11;;;;;;;9.02;8.32;;;;;;;-144.30;62.50;84199.91;5048188;28;20197;-49
2023/07/07 02:13:38;;;;;;;8.85;8.18;;;;;;;-144.30;62.90;84168.09;5048300;28;20200;-49
2023/07/07 02:16:07;;;;;;;7.97;7.40;;;;;;;-144.30;63.40;84243.63;5047949;28;20312;-50
2023/07/07 02:18:37;;;;;;;11.30;8.65;;;;;;;-144.30;63.40;84229.72;5048369;28;20208;-48
2023/07/07 02:21:05;;;;;;;9.00;8.23;;;;;;;-144.30;63.38;84243.63;5048508;28;20587;-48
2023/07/07 02:23:32;;;;;;;12.23;8.50;;;;;;;-144.30;63.33;84211.81;5048445;28;20193;-51
2023/07/07 02:25:59;;;;;;;9.27;8.50;;;;;;;-144.30;63.40;84283.38;5049480;28;20734;-49
2023/07/07 02:28:25;;;;;;;10.13;8.52;;;;;;;-144.30;63.36;84239.66;5051719;28;20330;-49
2023/07/07 02:30:53;;;;;;;9.40;8.48;;;;;;;-144.30;63.41;84187.97;5051728;28;20203;-49
2023/07/07 02:33:31;;;;;;;9.30;8.48;;;;;;;-144.30;63.31;84237.66;5051720;28;20701;-50
2023/07/07 02:36:02;;;;;;;8.52;7.93;;;;;;;-144.30;63.51;84239.66;5051774;28;20220;-48
2023/07/07 02:38:29;;;;;;;12.25;8.73;;;;;;;-144.30;63.14;84243.63;5051673;28;20651;-48
2023/07/07 02:40:56;;;;;;;9.68;8.98;;;;;;;-144.30;63.18;84235.66;5051707;28;20200;-47
2023/07/07 02:43:24;;;;;;;9.80;8.98;;;;;;;-144.30;63.13;84221.75;5051236;28;20242;-49
2023/07/07 02:45:51;;;;;;;11.10;8.32;;;;;;;-144.30;62.95;84209.84;5051746;28;20203;-47
2023/07/07 02:48:20;;;;;;;9.18;8.48;;;;;;;-144.30;63.14;84223.75;5051251;28;20204;-47
2023/07/07 02:50:55;;;;;;;9.13;7.93;;;;;;;-144.30;63.27;84269.47;5051594;28;20558;-48
2023/07/07 02:53:25;;;;;;;9.82;8.52;;;;;;;-144.30;63.29;84273.44;5051196;28;20672;-49
2023/07/07 02:55:52;;;;;;;8.88;8.05;;;;;;;-144.30;63.05;84158.16;5039058;28;20693;-48
2023/07/07 02:58:19;;;;;;;9.27;8.57;;;;;;;-144.30;62.89;84243.63;5042372;28;20687;-47
2023/07/07 03:00:48;;;;;;;9.63;8.68;;;;;;;-144.30;63.11;84241.63;5041675;28;20203;-48
2023/07/07 03:03:15;;;;;;;8.65;8.02;;;;;;;-144.30;62.53;84247.59;5038713;28;20204;-48
2023/07/07 03:05:43;;;;;;;9.30;8.50;;;;;;;-144.30;62.62;84251.56;5031107;28;20617;-50
2023/07/07 03:08:09;;;;;;;9.02;8.05;;;;;;;-144.30;62.37;84219.78;5030775;28;20284;-49
2023/07/07 03:10:40;;;;;;;10.25;8.77;;;;;;;-144.30;62.36;84253.56;5030813;28;20288;-50
2023/07/07 03:13:11;;;;;;;10.20;9.18;;;;;;;-144.30;62.39;84237.66;5030845;28;20197;-51
2023/07/07 03:15:39;;;;;;;17.80;14.23;;;;;;;-144.30;62.37;84251.56;5031304;28;20228;-51
2023/07/07 03:18:08;;;;;;;10.80;9.77;;;;;;;-144.30;62.43;84225.75;5031189;28;20221;-49
2023/07/07 03:20:36;;;;;;;11.05;10.05;;;;;;;-144.30;62.16;84201.88;5035479;28;20233;-49
2023/07/07 03:23:03;;;;;;;11.30;10.32;;;;;;;-144.30;62.17;84187.97;5031047;28;20677;-49
2023/07/07 03:25:31;;;;;;;11.75;10.63;;;;;;;-144.30;62.91;84168.09;5030536;28;20205;-48
2023/07/07 03:27:59;;;;;;;9.15;8.43;;;;;;;-144.30;62.83;84225.75;5030536;28;20201;-50
2023/07/07 03:30:27;;;;;;;10.18;9.00;;;;;;;-144.30;62.76;84136.31;5030539;28;20197;-49
2023/07/07 03:32:54;;;;;;;13.25;11.57;;;;;;;-144.30;62.69;84201.88;5030744;28;20193;-48
2023/07/07 03:35:21;;;;;;;13.48;12.10;;;;;;;-144.30;62.68;84215.78;5030057;28;20208;-48
2023/07/07 03:37:48;;;;;;;14.27;11.20;;;;;;;-144.30;62.46;84215.78;5028282;28;20229;-48
2023/07/07 03:40:15;;;;;;;14.73;12.82;;;;;;;-144.30;62.37;84209.84;5029895;28;20197;-50
2023/07/07 03:42:42;;;;;;;12.50;9.48;;;;;;;-144.30;61.84;84180.03;5030686;28;20677;-49
2023/07/07 03:45:11;;;;;;;10.48;9.38;;;;;;;-144.30;61.59;84160.16;5030536;28;20598;-49
2023/07/07 03:47:38;;;;;;;10.07;9.18;;;;;;;-144.30;61.22;84128.34;5030595;28;20205;-51
2023/07/07 03:50:07;;;;;;;9.45;8.27;;;;;;;-144.30;60.95;84184.00;5030511;28;20704;-49
2023/07/07 03:52:34;;;;;;;9.50;8.77;;;;;;;-144.30;60.64;84116.44;5030645;28;20592;-49
2023/07/07 03:55:02;;;;;;;8.68;7.93;;;;;;;-144.30;60.12;84092.59;5030403;28;20197;-49
2023/07/07 03:57:29;;;;;;;9.15;8.20;;;;;;;-144.30;58.40;84315.16;5030065;28;20234;-51
2023/07/07 03:59:55;;;;;;;8.82;8.07;;;;;;;-144.30;53.71;83792.53;5030394;28;20287;-50
2023/07/07 04:02:24;;;;;;;9.00;8.15;;;;;;;-144.30;49.69;83532.25;5030329;28;20198;-49
2023/07/07 04:04:51;;;;;;;12.57;7.90;;;;;;;-144.30;46.53;83315.69;5030263;28;20233;-51
2023/07/07 04:07:18;;;;;;;12.27;7.70;;;;;;;-144.30;43.05;83003.78;5029172;28;20685;-50
2023/07/07 04:09:45;;;;;;;9.27;8.65;;;;;;;-144.30;40.88;82771.38;5030089;28;20749;-50
2023/07/07 04:12:12;;;;;;;10.07;8.90;;;;;;;-144.30;38.95;82531.00;5030191;28;20562;-48
2023/07/07 04:14:39;;;;;;;12.35;9.73;;;;;;;-144.30;36.56;82219.19;5029748;28;20194;-49
2023/07/07 04:17:06;;;;;;;10.43;9.40;;;;;;;-144.30;35.44;82054.34;5029560;28;20755;-50
2023/07/07 04:19:34;;;;;;;7.63;7.03;;;;;;;-144.30;34.24;81861.69;5029925;28;20235;-50
2023/07/07 04:22:01;;;;;;;7.18;6.05;;;;;;;-144.30;33.44;81700.84;5029009;28;20201;-49
2023/07/07 04:24:28;;;;;;;10.48;8.48;;;;;;;-144.30;32.92;81625.38;5029570;28;20201;-50
2023/07/07 04:26:55;;;;;;;9.77;8.23;;;;;;;-144.30;32.68;81541.97;5029845;28;20704;-50
2023/07/07 04:29:22;;;;;;;11.18;6.90;;;;;;;-144.30;31.95;81385.13;5029608;28;20589;-51
2023/07/07 04:31:49;;;;;;;8.88;7.07;;;;;;;-144.30;31.71;81339.44;5029539;28;20228;-48
2023/07/07 04:34:17;;;;;;;7.55;7.15;;;;;;;-144.30;31.10;81283.84;5029476;28;20199;-49
2023/07/07 04:36:45;;;;;;;8.50;7.72;;;;;;;-144.30;31.13;81196.50;5029658;28;20275;-50
2023/07/07 04:39:12;;;;;;;7.78;7.00;;;;;;;-144.30;30.60;81003.91;5029566;28;20283;-50
2023/07/07 04:41:39;;;;;;;8.30;7.10;;;;;;;-144.30;29.92;80862.94;5029457;28;20215;-51
2023/07/07 04:44:06;;;;;;;8.85;7.90;;;;;;;-144.30;30.14;80864.91;5029461;28;20201;-50
2023/07/07 04:46:34;;;;;;;7.82;7.35;;;;;;;-144.30;29.55;80793.44;5029515;28;20677;-50
2023/07/07 04:49:06;;;;;;;7.28;6.60;;;;;;;-144.30;28.85;80503.59;5029344;28;20197;-49
2023/07/07 04:51:33;;;;;;;6.53;5.85;;;;;;;-144.30;28.82;80577.06;5029441;28;20623;-51
2023/07/07 04:54:02;;;;;;;10.10;6.60;;;;;;;-144.30;28.66;80465.91;5029336;28;20223;-50
2023/07/07 04:56:29;;;;;;;6.78;6.28;;;;;;;-144.30;29.04;80592.94;5028864;28;20224;-50
2023/07/07 04:58:58;;;;;;;9.63;6.13;;;;;;;-144.30;28.99;80517.50;5029103;28;20196;-50
2023/07/07 05:01:26;;;;;;;18.48;6.43;;;;;;;-144.30;28.66;80501.63;5028930;28;20195;-51
2023/07/07 05:03:55;;;;;;;8.38;6.15;;;;;;;-144.30;28.26;80271.34;5029170;28;20230;-50
2023/07/07 05:06:24;;;;;;;8.80;6.30;;;;;;;-144.30;27.89;80088.75;5028880;28;20707;-51
2023/07/07 05:08:51;;;;;;;7.65;6.90;;;;;;;-144.30;27.40;79888.28;5029087;28;20200;-51
2023/07/07 05:11:22;;;;;;;7.00;6.40;;;;;;;-144.30;27.53;79961.72;5028861;28;20193;-50
2023/07/07 05:13:50;;;;;;;7.97;6.63;;;;;;;-144.30;27.30;79852.56;5029412;28;20721;-48
2023/07/07 05:16:19;;;;;;;7.38;6.50;;;;;;;-144.30;27.30;79858.50;5028877;28;20232;-50
2023/07/07 05:18:46;;;;;;;6.57;5.97;;;;;;;-144.30;27.33;79902.16;5028976;28;20239;-51
2023/07/07 05:21:16;;;;;;;8.68;6.05;;;;;;;-144.30;27.78;79935.91;5028759;28;20207;-50
2023/07/07 05:23:43;;;;;;;7.50;6.00;;;;;;;-144.30;27.74;79961.72;5028816;28;20203;-50
2023/07/07 05:26:10;;;;;;;7.03;5.90;;;;;;;-144.30;27.40;79739.44;5028957;28;20681;-51
2023/07/07 05:28:38;;;;;;;8.00;6.18;;;;;;;-144.30;27.51;80037.13;5028795;28;20203;-52
2023/07/07 05:31:07;;;;;;;7.93;5.95;;;;;;;-144.30;27.90;79995.47;5028849;28;20200;-49
2023/07/07 05:33:35;;;;;;;8.75;5.95;;;;;;;-144.30;27.42;79834.69;5028859;28;20193;-51
2023/07/07 05:36:04;;;;;;;6.07;5.60;;;;;;;-144.30;27.88;79910.09;5028676;28;20287;-50
2023/07/07 05:38:31;;;;;;;8.73;6.10;;;;;;;-144.30;27.56;79755.31;5028457;28;20216;-50
2023/07/07 05:40:58;;;;;;;7.90;5.75;;;;;;;-144.30;28.29;80084.78;5029049;28;20676;-49
2023/07/07 05:43:27;;;;;;;8.35;5.70;;;;;;;-144.30;27.74;80009.34;5028647;28;20264;-51
2023/07/07 05:45:59;;;;;;;7.72;7.13;;;;;;;-144.30;28.26;80201.88;5028888;28;20218;-50
2023/07/07 05:48:26;;;;;;;6.80;6.03;;;;;;;-144.30;28.55;80191.97;5028543;28;20596;-50
2023/07/07 05:50:57;;;;;;;13.93;6.82;;;;;;;-144.30;28.60;80283.28;5028714;28;20200;-49
2023/07/07 05:53:25;;;;;;;7.28;6.15;;;;;;;-144.30;28.80;80227.69;5028402;28;20203;-49
2023/07/07 05:55:52;;;;;;;15.35;7.45;;;;;;;-144.30;28.98;80267.38;5028850;28;20192;-50
2023/07/07 05:58:19;;;;;;;7.78;6.63;;;;;;;-144.30;28.88;80400.38;5028407;28;20235;-50
2023/07/07 06:00:46;;;;;;;7.13;5.72;;;;;;;-144.30;28.90;80239.59;5029900;28;20228;-49
2023/07/07 06:03:14;;;;;;;7.85;5.75;;;;;;;-144.30;28.76;80287.25;5032106;28;20205;-50
2023/07/07 06:05:43;;;;;;;5.68;5.28;;;;;;;-144.30;28.64;80049.03;5032555;28;20561;-51
2023/07/07 06:08:09;;;;;;;6.95;6.30;;;;;;;-144.30;28.64;79993.47;5032237;28;20201;-51
2023/07/07 06:10:37;;;;;;;8.43;7.40;;;;;;;-144.30;28.88;80100.66;5032413;28;20687;-48
2023/07/07 06:13:04;;;;;;;7.38;6.60;;;;;;;-144.30;29.09;80180.06;5032224;28;20295;-50
2023/07/07 06:15:31;;;;;;;6.50;5.97;;;;;;;-144.30;28.83;80088.75;5032401;28;20203;-49
2023/07/07 06:17:58;;;;;;;9.25;5.97;;;;;;;-144.30;28.46;79941.88;5032182;28;20225;-51
2023/07/07 06:20:27;;;;;;;9.73;6.60;;;;;;;-144.30;28.15;79802.94;5031730;28;20683;-50
2023/07/07 06:22:54;;;;;;;6.63;6.03;;;;;;;-144.30;28.69;80049.03;5032417;28;20219;-48
2023/07/07 06:25:21;;;;;;;6.75;6.25;;;;;;;-144.30;28.77;80311.06;5032688;28;20204;-51
2023/07/07 06:27:48;;;;;;;11.75;6.30;;;;;;;-144.30;29.09;80354.72;5032764;28;20227;-50
2023/07/07 06:30:15;;;;;;;8.25;6.43;;;;;;;-144.30;29.67;80507.59;5032216;28;20585;-49
2023/07/07 06:32:42;;;;;;;6.28;5.90;;;;;;;-144.30;29.94;80575.06;5032422;28;20258;-51
2023/07/07 06:35:09;;;;;;;7.35;6.63;;;;;;;-144.30;30.67;80819.25;5032461;28;20200;-51
2023/07/07 06:37:38;;;;;;;6.78;6.22;;;;;;;-144.30;30.67;80864.91;5032355;28;20312;-51
2023/07/07 06:40:06;;;;;;;10.10;6.47;;;;;;;-144.30;31.34;80922.50;5032360;28;20303;-49
2023/07/07 06:42:32;;;;;;;7.35;6.70;;;;;;;-144.30;31.08;80912.56;5032126;28;20579;-49
2023/07/07 06:44:59;;;;;;;7.70;6.93;;;;;;;-144.30;31.70;81132.94;5032273;28;20207;-50
2023/07/07 06:47:27;;;;;;;7.35;6.85;;;;;;;-144.30;31.66;81081.34;5032147;28;20572;-50
2023/07/07 06:49:54;;;;;;;8.95;6.85;;;;;;;-144.30;31.93;81160.75;5032406;28;20580;-50
2023/07/07 06:52:21;;;;;;;8.93;8.07;;;;;;;-144.30;32.19;81200.47;5032186;28;20223;-49
2023/07/07 06:54:49;;;;;;;7.32;6.82;;;;;;;-144.30;31.87;81007.88;5040086;28;20684;-51
2023/07/07 06:57:16;;;;;;;10.07;6.63;;;;;;;-144.30;32.16;81013.81;5040584;28;20223;-49
2023/07/07 06:59:43;;;;;;;8.52;7.45;;;;;;;-144.30;31.94;81049.56;5040944;28;20672;-51
2023/07/07 07:02:12;;;;;;;7.55;6.90;;;;;;;-144.30;31.69;80995.97;5042513;28;20682;-50
2023/07/07 07:04:39;;;;;;;7.82;7.00;;;;;;;-144.30;31.91;81130.97;5041606;28;20193;-50
2023/07/07 07:07:06;;;;;;;7.28;6.80;;;;;;;-144.30;31.95;81121.03;5035092;28;20203;-50
2023/07/07 07:09:33;;;;;;;9.43;7.30;;;;;;;-144.30;32.58;81214.34;5040426;28;20691;-49
2023/07/07 07:12:02;;;;;;;7.90;7.35;;;;;;;-144.30;32.78;81303.72;5040032;28;20189;-49
2023/07/07 07:14:29;;;;;;;8.55;7.63;;;;;;;-144.30;32.47;81188.53;5040165;28;20619;-50
2023/07/07 07:16:56;;;;;;;7.72;7.18;;;;;;;-144.30;32.12;81121.03;5041573;28;20198;-50
2023/07/07 07:19:23;;;;;;;7.38;6.72;;;;;;;-144.30;31.93;81029.72;5041551;28;20708;-50
2023/07/07 07:21:50;;;;;;;10.80;6.90;;;;;;;-144.30;31.90;81071.41;5041578;28;20200;-49
2023/07/07 07:24:19;;;;;;;8.18;7.47;;;;;;;-144.30;31.98;81474.47;5042376;28;20693;-49
2023/07/07 07:26:46;;;;;;;8.27;7.38;;;;;;;-144.30;32.53;81303.72;5051276;28;21006;-50
2023/07/07 07:29:14;;;;;;;7.70;7.00;;;;;;;-144.30;33.11;81454.63;5051315;28;20690;-49
2023/07/07 07:31:41;;;;;;;8.13;7.43;;;;;;;-144.30;33.33;81442.69;5051427;28;20690;-50
2023/07/07 07:34:22;;;;;;;7.93;7.13;;;;;;;-144.30;32.55;81347.38;5051462;28;20240;-50
2023/07/07 07:36:50;;;;;;;12.35;9.15;;;;;;;-144.30;32.54;81295.75;5051253;28;20207;-50
2023/07/07 07:39:17;;;;;;;8.73;7.72;;;;;;;-144.30;32.23;81216.34;5051276;28;20220;-48
2023/07/07 07:41:46;;;;;;;10.30;8.85;;;;;;;-144.30;31.75;81154.78;5051256;28;20202;-49
2023/07/07 07:44:14;;;;;;;10.13;7.32;;;;;;;-144.30;31.21;80997.94;5051187;28;20589;-51
2023/07/07 07:46:42;;;;;;;8.20;7.32;;;;;;;-144.30;30.61;80948.31;5050977;28;20298;-48
2023/07/07 07:49:09;;;;;;;8.02;7.40;;;;;;;-144.30;30.52;80888.75;5043489;28;20203;-51
2023/07/07 07:51:38;;;;;;;8.05;7.35;;;;;;;-144.30;30.68;81013.81;5029552;28;20626;-48
2023/07/07 07:54:06;;;;;;;8.13;7.40;;;;;;;-144.30;30.60;81039.63;5030629;28;20282;-48
2023/07/07 07:56:33;;;;;;;8.70;7.95;;;;;;;-144.30;30.72;81013.81;5048330;28;20199;-49
2023/07/07 07:59:00;;;;;;;12.68;6.90;;;;;;;-144.30;31.09;81097.22;5039676;28;20213;-50
2023/07/07 08:01:28;;;;;;;11.27;7.60;;;;;;;-144.30;30.97;80984.03;5029804;28;20198;-51
2023/07/07 08:03:55;;;;;;;8.90;7.50;;;;;;;-144.30;30.35;80993.97;5029468;28;20719;-48
2023/07/07 08:06:23;;;;;;;6.95;6.18;;;;;;;-144.30;30.64;80946.31;5030071;28;20196;-50
2023/07/07 08:08:50;;;;;;;7.88;7.30;;;;;;;-144.30;30.15;80853.00;5030260;28;20192;-51
2023/07/07 08:11:20;;;;;;;8.35;7.80;;;;;;;-144.30;29.64;80720.00;5029681;28;20279;-50
2023/07/07 08:13:47;;;;;;;8.48;7.68;;;;;;;-144.30;29.51;80654.47;5029554;28;20592;-49
2023/07/07 08:16:14;;;;;;;8.65;7.95;;;;;;;-144.30;28.91;80491.69;5029378;28;20258;-50
2023/07/07 08:18:43;;;;;;;7.97;7.20;;;;;;;-144.30;28.88;80398.41;5029442;28;20259;-48
2023/07/07 08:21:10;;;;;;;8.65;7.78;;;;;;;-144.30;28.97;80452.00;5030039;28;20764;-49
2023/07/07 08:23:36;;;;;;;10.05;7.07;;;;;;;-144.30;29.21;80587.00;5029211;28;20196;-51
2023/07/07 08:26:03;;;;;;;8.00;7.13;;;;;;;-144.30;29.00;80509.56;5029787;28;20211;-50
2023/07/07 08:28:30;;;;;;;6.90;6.50;;;;;;;-144.30;29.09;80652.50;5029484;28;20560;-51
2023/07/07 08:30:57;;;;;;;8.32;7.55;;;;;;;-144.30;29.69;80807.34;5029925;28;20591;-48
2023/07/07 08:33:24;;;;;;;8.30;7.68;;;;;;;-144.30;29.76;80771.63;5029252;28;20203;-49
2023/07/07 08:35:53;;;;;;;8.80;7.85;;;;;;;-144.30;29.70;80757.72;5029845;28;20296;-49
2023/07/07 08:38:20;;;;;;;7.93;7.32;;;;;;;-144.30;29.40;80680.28;5029288;28;20221;-51
2023/07/07 08:40:51;;;;;;;10.73;7.70;;;;;;;-144.30;29.43;80656.47;5029541;28;20284;-49
2023/07/07 08:43:19;;;;;;;10.65;7.60;;;;;;;-144.30;29.41;80700.16;5029196;28;20211;-51
2023/07/07 08:45:57;;;;;;;7.95;7.32;;;;;;;-144.30;29.20;80781.53;5029290;28;20233;-50
2023/07/07 08:48:34;;;;;;;10.20;9.13;;;;;;;-144.30;30.15;81150.81;5029114;28;20192;-51
2023/07/07 08:51:08;;;;;;;8.40;7.60;;;;;;;-144.30;31.49;81472.47;5029680;28;20711;-51
2023/07/07 08:53:47;;;;;;;9.00;8.10;;;;;;;-144.30;31.96;81555.88;5029185;28;20197;-51
2023/07/07 08:56:20;;;;;;;7.80;7.20;;;;;;;-144.30;31.74;81581.69;5029084;28;20284;-49
2023/07/07 08:58:58;;;;;;;8.02;7.20;;;;;;;-144.30;31.45;81490.34;5029338;28;20238;-49
2023/07/07 09:01:40;;;;;;;8.15;7.50;;;;;;;-144.30;31.93;81587.66;5030494;28;20200;-48
2023/07/07 09:04:33;;;;;;;9.32;8.00;;;;;;;-144.30;32.17;81547.94;5049986;28;20290;-51
2023/07/07 09:07:28;;;;;;;9.18;8.32;;;;;;;-144.30;31.77;81470.50;5049830;28;20218;-48
2023/07/07 09:10:20;;;;;;;8.65;7.95;;;;;;;-144.30;31.19;81357.31;5049807;28;20192;-49
2023/07/07 09:12:52;;;;;;;6.85;6.45;;;;;;;-144.30;30.72;81206.41;5036183;28;20712;-49
2023/07/07 09:15:23;;;;;;;7.65;6.57;;;;;;;-144.30;30.62;81186.56;5044299;28;20196;-50
2023/07/07 09:17:55;;;;;;;9.88;7.18;;;;;;;-144.30;30.38;81204.44;5029009;28;20197;-49
2023/07/07 09:20:24;;;;;;;8.27;7.45;;;;;;;-144.30;30.54;81188.53;5028837;28;20331;-49
2023/07/07 09:22:57;;;;;;;8.50;7.60;;;;;;;-144.30;30.46;81166.69;5029066;28;20189;-51
2023/07/07 09:25:29;;;;;;;7.78;7.28;;;;;;;-144.30;29.81;81045.59;5033144;28;20211;-51
2023/07/07 09:28:00;;;;;;;8.23;7.38;;;;;;;-144.30;30.08;81200.47;5036634;28;20202;-50
2023/07/07 09:30:43;;;;;;;7.40;6.90;;;;;;;-144.30;30.26;81156.78;5028722;28;20192;-51
2023/07/07 09:33:13;;;;;;;8.45;7.50;;;;;;;-144.30;30.37;81121.03;5028832;28;20200;-49
2023/07/07 09:35:48;;;;;;;10.07;6.70;;;;;;;-144.30;30.15;81059.50;5037497;28;20275;-49
2023/07/07 09:38:27;;;;;;;7.25;6.55;;;;;;;-144.30;29.79;81053.53;5040604;28;20218;-48
2023/07/07 09:41:03;;;;;;;8.15;7.57;;;;;;;-144.30;29.92;81077.34;5041292;28;20747;-47
2023/07/07 09:43:40;;;;;;;11.10;9.13;;;;;;;-144.30;30.19;81097.22;5041233;28;20203;-50
2023/07/07 09:46:17;;;;;;;10.25;9.48;;;;;;;-144.30;29.47;81041.63;5035243;28;20649;-50
2023/07/07 09:48:52;;;;;;;8.07;6.88;;;;;;;-144.30;29.18;81041.63;5032879;28;20584;-49
2023/07/07 09:51:34;;;;;;;7.43;6.97;;;;;;;-144.30;29.07;80995.97;5032362;28;20212;-49
2023/07/07 09:54:03;;;;;;;6.68;6.28;;;;;;;-144.30;29.21;81019.78;5032715;28;20200;-49
2023/07/07 09:56:38;;;;;;;8.75;7.90;;;;;;;-144.30;29.33;80999.94;5032288;28;20197;-50
2023/07/07 09:59:12;;;;;;;10.43;9.50;;;;;;;-144.30;29.12;80999.94;5032694;28;20216;-50
2023/07/07 10:01:43;;;;;;;7.45;6.75;;;;;;;-144.30;29.09;80960.22;5032362;28;20200;-48
2023/07/07 10:04:15;;;;;;;7.55;7.05;;;;;;;-144.30;29.28;81009.84;5032563;28;20749;-50
2023/07/07 10:06:47;;;;;;;11.98;7.88;;;;;;;-144.30;29.38;81121.03;5045259;28;20199;-48
2023/07/07 10:09:16;;;;;;;7.72;7.03;;;;;;;-144.30;29.46;81283.84;5051909;28;20214;-49
2023/07/07 10:11:44;;;;;;;7.13;6.53;;;;;;;-144.30;30.12;81311.66;5050084;28;20323;-52
2023/07/07 10:14:13;;;;;;;8.68;6.13;;;;;;;-144.30;29.44;81206.41;5039846;28;20659;-50
2023/07/07 10:16:51;;;;;;;9.80;7.90;;;;;;;-144.30;29.09;81208.41;5046722;28;20743;-51
2023/07/07 10:19:19;;;;;;;8.70;7.85;;;;;;;-144.30;29.70;81269.94;5050728;28;20240;-50
2023/07/07 10:21:47;;;;;;;8.40;7.60;;;;;;;-144.30;29.60;81256.06;5051633;28;20266;-50
2023/07/07 10:24:15;;;;;;;7.25;6.75;;;;;;;-144.30;29.29;81097.22;5052104;28;20196;-49
2023/07/07 10:26:47;;;;;;;10.52;9.63;;;;;;;-144.30;29.51;81186.56;5051751;28;20200;-48
2023/07/07 10:29:20;;;;;;;6.63;6.13;;;;;;;-144.30;29.47;81174.66;5052173;28;20207;-49
2023/07/07 10:31:52;;;;;;;8.50;7.25;;;;;;;-144.30;29.03;81180.59;5051893;28;20204;-47
2023/07/07 10:34:26;;;;;;;8.30;7.57;;;;;;;-144.30;28.89;81271.94;5051766;28;20206;-49
2023/07/07 10:36:57;;;;;;;13.13;11.95;;;;;;;-144.30;29.17;81337.47;5051595;28;20209;-49
2023/07/07 10:39:27;;;;;;;6.97;6.57;;;;;;;-144.30;29.17;81333.50;5051445;28;20269;-49
2023/07/07 10:41:55;;;;;;;10.88;9.23;;;;;;;-144.30;29.34;81365.25;5051592;28;20299;-48
2023/07/07 10:44:24;;;;;;;11.73;10.48;;;;;;;-144.30;29.57;81385.13;5051295;28;20200;-48
2023/07/07 10:46:51;;;;;;;11.82;8.43;;;;;;;-144.30;29.24;81353.34;5050720;28;20258;-51
2023/07/07 10:49:24;;;;;;;6.95;6.45;;;;;;;-144.30;29.44;81383.13;5051385;28;20688;-49
2023/07/07 10:52:05;;;;;;;9.77;6.75;;;;;;;-144.30;29.21;81436.75;5051450;28;20697;-50
2023/07/07 10:54:40;;;;;;;7.55;6.20;;;;;;;-144.30;29.29;81440.72;5051222;28;20668;-50
2023/07/07 10:57:20;;;;;;;11.45;9.98;;;;;;;-144.30;29.63;81341.44;5051138;28;20206;-48
2023/07/07 10:59:59;;;;;;;9.07;8.27;;;;;;;-144.30;29.89;81420.84;5051095;28;20224;-47
2023/07/07 11:02:39;;;;;;;10.38;7.78;;;;;;;-144.30;30.09;81528.09;5050863;28;20217;-49
2023/07/07 11:05:30;;;;;;;10.40;9.55;;;;;;;-144.30;30.21;81454.63;5051119;28;20206;-47
2023/07/07 11:08:05;;;;;;;7.95;6.25;;;;;;;-144.30;30.38;81462.56;5051111;28;20458;-51
2023/07/07 11:10:50;;;;;;;10.32;9.00;;;;;;;-144.30;30.30;81551.91;5050452;28;20199;-51
2023/07/07 11:13:28;;;;;;;10.77;9.75;;;;;;;-144.30;30.72;81557.88;5050542;28;20207;-49
2023/07/07 11:16:01;;;;;;;7.38;6.90;;;;;;;-144.30;30.67;81595.59;5050374;28;20196;-51
2023/07/07 11:18:46;;;;;;;8.05;6.85;;;;;;;-144.30;30.63;81561.84;5050449;28;20204;-50
2023/07/07 11:21:24;;;;;;;11.45;10.50;;;;;;;-144.30;30.46;81541.97;5050476;28;20200;-49
2023/07/07 11:24:06;;;;;;;7.95;7.45;;;;;;;-144.30;30.22;81557.88;5050487;28;20199;-49
2023/07/07 11:26:47;;;;;;;12.05;9.05;;;;;;;-144.30;30.61;81645.25;5050417;28;20708;-51
2023/07/07 11:29:22;;;;;;;9.02;7.03;;;;;;;-144.30;30.31;81569.78;5050579;28;20200;-51